Terminal Aerodrome Forecast
Issued by NWS

Home | Current Version | Previous Version | Text Only | Print | Product List | Glossary On
Versions: 1 2 3 4 5 6 7 8 9 10 11 12
631
FTUS46 KPDT 090539
TAFALW
TAF
KALW 090539Z 0906/1006 15006KT P6SM FEW250
     FM091400 VRB03KT 6SM BR FEW005 FEW250
     FM091800 VRB04KT P6SM SKC
     FM100300 12004KT P6SM FEW250=

USA.gov is the U.S. government's official web portal to all federal, state and local government web resources and services.